createdAt,value
2022-11-17T00:00:07.737Z,8.73
2022-11-17T00:01:09.688Z,8.28
2022-11-17T00:02:11.590Z,7.76
2022-11-17T00:03:13.334Z,8.34
2022-11-17T00:04:15.155Z,8.80
2022-11-17T00:05:16.950Z,8.59
2022-11-17T00:06:18.754Z,8.42
2022-11-17T00:07:20.686Z,8.59
2022-11-17T00:08:22.549Z,8.62
2022-11-17T00:09:24.334Z,8.64
2022-11-17T00:10:26.147Z,8.08
2022-11-17T00:11:27.961Z,8.82
2022-11-17T00:12:32.821Z,8.71
2022-11-17T00:13:33.789Z,9.46
2022-11-17T00:14:35.666Z,10.31
2022-11-17T00:15:37.488Z,10.24
2022-11-17T00:16:39.372Z,9.39
2022-11-17T00:17:41.206Z,9.74
2022-11-17T00:18:43.008Z,8.94
2022-11-17T00:19:44.825Z,9.41
2022-11-17T00:20:46.631Z,8.54
2022-11-17T00:21:48.451Z,9.23
2022-11-17T00:22:50.299Z,7.86
2022-11-17T00:23:52.091Z,7.23
2022-11-17T00:24:53.885Z,6.36
2022-11-17T00:25:55.702Z,6.89
2022-11-17T00:26:57.516Z,6.98
2022-11-17T00:27:59.351Z,6.78
2022-11-17T00:29:01.170Z,7.21
2022-11-17T00:30:21.088Z,6.96
2022-11-17T00:31:22.901Z,7.90
2022-11-17T00:32:24.825Z,7.55
2022-11-17T00:33:26.682Z,6.71
2022-11-17T00:34:28.483Z,6.75
2022-11-17T00:35:30.288Z,6.86
2022-11-17T00:36:32.097Z,6.71
2022-11-17T00:37:33.902Z,7.15
2022-11-17T00:38:35.763Z,6.43
2022-11-17T00:39:37.576Z,5.98
2022-11-17T00:40:39.367Z,6.19
2022-11-17T00:41:41.173Z,6.37
2022-11-17T00:42:42.995Z,6.18
2022-11-17T00:43:44.843Z,5.80
2022-11-17T00:44:46.650Z,6.51
2022-11-17T00:45:48.495Z,6.25
2022-11-17T00:46:50.326Z,6.42
2022-11-17T00:47:52.216Z,6.41
2022-11-17T00:48:54.083Z,6.33
2022-11-17T00:49:55.886Z,6.31
2022-11-17T00:50:57.694Z,7.03
2022-11-17T00:51:59.520Z,7.52
2022-11-17T00:53:01.326Z,7.47
2022-11-17T00:54:03.170Z,7.14
2022-11-17T00:55:04.981Z,7.41
2022-11-17T00:56:06.861Z,7.59
2022-11-17T00:57:08.692Z,7.44
2022-11-17T00:58:10.521Z,6.76
2022-11-17T00:59:12.356Z,6.83
2022-11-17T01:00:14.157Z,7.19
2022-11-17T01:01:16.029Z,6.99
2022-11-17T01:02:17.786Z,6.52
2022-11-17T01:03:19.802Z,6.01
2022-11-17T01:04:21.660Z,6.55
2022-11-17T01:05:23.480Z,6.25
2022-11-17T01:06:25.388Z,6.25
2022-11-17T01:07:27.265Z,6.11
2022-11-17T01:08:29.121Z,6.87
2022-11-17T01:09:30.967Z,7.81
2022-11-17T01:10:32.797Z,7.43
2022-11-17T01:11:34.597Z,7.31
2022-11-17T01:12:36.432Z,7.02
2022-11-17T01:13:38.298Z,6.79
2022-11-17T01:14:40.103Z,6.61
2022-11-17T01:15:41.910Z,6.51
2022-11-17T01:16:43.712Z,6.09
2022-11-17T01:17:45.526Z,5.97
2022-11-17T01:18:47.413Z,6.47
2022-11-17T01:19:49.262Z,6.01
2022-11-17T01:20:51.059Z,6.52
2022-11-17T01:21:52.842Z,6.19
2022-11-17T01:22:54.643Z,6.41
2022-11-17T01:23:56.476Z,6.22
2022-11-17T01:24:58.330Z,6.09
2022-11-17T01:26:00.120Z,7.01
2022-11-17T01:27:01.931Z,6.33
2022-11-17T01:28:03.723Z,6.79
2022-11-17T01:29:05.523Z,7.06
2022-11-17T01:30:08.304Z,7.29
2022-11-17T01:31:10.098Z,8.46
2022-11-17T01:32:11.894Z,8.45
2022-11-17T01:33:13.683Z,8.60
2022-11-17T01:34:15.574Z,7.97
2022-11-17T01:35:17.393Z,8.91
2022-11-17T01:36:19.209Z,10.03
2022-11-17T01:37:21.015Z,9.74
2022-11-17T01:38:22.810Z,9.43
2022-11-17T01:39:24.604Z,8.59
2022-11-17T01:40:26.443Z,8.76
2022-11-17T01:41:28.241Z,9.57
2022-11-17T01:42:30.026Z,8.99
2022-11-17T01:43:31.941Z,9.76
2022-11-17T01:44:33.731Z,9.60
2022-11-17T01:45:35.561Z,9.46
2022-11-17T01:46:37.389Z,9.33
2022-11-17T01:47:39.198Z,9.16
2022-11-17T01:48:41.001Z,9.32
2022-11-17T01:49:42.825Z,9.77
2022-11-17T01:50:44.683Z,9.60
2022-11-17T01:51:46.481Z,9.11
2022-11-17T01:52:48.270Z,9.12
2022-11-17T01:53:50.093Z,8.88
2022-11-17T01:54:51.920Z,8.85
2022-11-17T01:55:53.759Z,8.94
2022-11-17T01:56:55.549Z,9.25
2022-11-17T01:57:57.326Z,8.85
2022-11-17T01:58:59.150Z,9.20
2022-11-17T02:00:00.945Z,8.95
2022-11-17T02:01:02.785Z,8.24
2022-11-17T02:02:04.673Z,8.95
2022-11-17T02:03:06.599Z,8.94
2022-11-17T02:04:08.419Z,9.69
2022-11-17T02:05:10.437Z,9.09
2022-11-17T02:06:12.495Z,9.60
2022-11-17T02:07:14.385Z,9.44
2022-11-17T02:08:16.237Z,9.47
2022-11-17T02:09:18.022Z,9.59
2022-11-17T02:10:19.730Z,9.44
2022-11-17T02:11:21.637Z,9.15
2022-11-17T02:12:23.444Z,9.22
2022-11-17T02:13:25.266Z,9.84
2022-11-17T02:14:27.073Z,9.35
2022-11-17T02:15:28.899Z,9.30
2022-11-17T02:16:30.767Z,8.70
2022-11-17T02:17:32.569Z,9.56
2022-11-17T02:18:34.380Z,8.59
2022-11-17T02:19:36.212Z,9.82
2022-11-17T02:20:38.139Z,9.65
2022-11-17T02:21:39.981Z,10.04
2022-11-17T02:22:41.793Z,9.83
2022-11-17T02:23:43.586Z,9.47
2022-11-17T02:24:45.399Z,9.74
2022-11-17T02:25:47.183Z,9.47
2022-11-17T02:26:49.027Z,9.69
2022-11-17T02:27:50.822Z,10.09
2022-11-17T02:28:52.655Z,10.25
2022-11-17T02:29:54.477Z,10.34
2022-11-17T02:30:56.285Z,9.81
2022-11-17T02:31:58.142Z,10.77
2022-11-17T02:32:59.947Z,10.78
2022-11-17T02:34:01.776Z,10.21
2022-11-17T02:35:03.597Z,10.74
2022-11-17T02:36:05.583Z,10.94
2022-11-17T02:37:07.421Z,10.33
2022-11-17T02:38:09.224Z,10.52
2022-11-17T02:39:11.016Z,10.69
2022-11-17T02:40:12.833Z,10.67
2022-11-17T02:41:14.649Z,9.87
2022-11-17T02:42:16.526Z,11.43
2022-11-17T02:43:18.352Z,10.91
2022-11-17T02:44:20.153Z,10.77
2022-11-17T02:45:21.934Z,10.98
2022-11-17T02:46:23.849Z,10.91
2022-11-17T02:47:25.704Z,10.55
2022-11-17T02:48:27.503Z,11.46
2022-11-17T02:49:29.316Z,10.01
2022-11-17T02:50:31.115Z,12.41
2022-11-17T02:51:32.988Z,12.68
2022-11-17T02:52:34.830Z,12.21
2022-11-17T02:53:36.993Z,12.35
2022-11-17T02:54:38.967Z,12.22
2022-11-17T02:55:40.778Z,12.14
2022-11-17T02:56:42.591Z,18.32
2022-11-17T02:57:44.441Z,15.99
2022-11-17T02:58:46.230Z,14.85
2022-11-17T02:59:48.019Z,13.99
2022-11-17T03:00:49.940Z,12.82
2022-11-17T03:01:51.821Z,12.37
2022-11-17T03:02:53.720Z,12.64
2022-11-17T03:03:55.529Z,12.81
2022-11-17T03:04:57.349Z,11.93
2022-11-17T03:05:59.166Z,12.87
2022-11-17T03:07:01.302Z,12.13
2022-11-17T03:08:03.202Z,11.29
2022-11-17T03:09:05.011Z,12.10
2022-11-17T03:10:07.202Z,11.66
2022-11-17T03:11:09.014Z,12.55
2022-11-17T03:12:10.826Z,12.05
2022-11-17T03:13:12.676Z,11.37
2022-11-17T03:14:14.509Z,12.32
2022-11-17T03:15:16.327Z,10.89
2022-11-17T03:16:18.144Z,11.61
2022-11-17T03:17:19.982Z,11.44
2022-11-17T03:18:22.152Z,11.29
2022-11-17T03:19:23.933Z,12.62
2022-11-17T03:20:25.741Z,12.22
2022-11-17T03:21:27.558Z,12.19
2022-11-17T03:22:29.481Z,12.87
2022-11-17T03:23:31.335Z,12.16
2022-11-17T03:24:33.156Z,12.37
2022-11-17T03:25:34.972Z,13.06
2022-11-17T03:26:36.798Z,12.32
2022-11-17T03:27:38.602Z,11.87
2022-11-17T03:28:40.467Z,12.91
2022-11-17T03:29:42.313Z,12.57
2022-11-17T03:30:44.109Z,11.89
2022-11-17T03:31:45.931Z,12.18
2022-11-17T03:32:47.739Z,12.27
2022-11-17T03:33:49.603Z,12.01
2022-11-17T03:34:51.424Z,12.75
2022-11-17T03:35:53.244Z,15.22
2022-11-17T03:36:55.044Z,12.91
2022-11-17T03:37:56.862Z,12.05
2022-11-17T03:38:58.741Z,13.31
2022-11-17T03:40:00.568Z,12.35
2022-11-17T03:41:02.354Z,13.07
2022-11-17T03:42:04.163Z,13.36
2022-11-17T03:43:05.989Z,12.67
2022-11-17T03:44:07.839Z,13.41
2022-11-17T03:45:09.649Z,13.65
2022-11-17T03:46:11.880Z,12.47
2022-11-17T03:47:13.694Z,13.30
2022-11-17T03:48:15.541Z,15.14
2022-11-17T03:49:17.351Z,14.48
2022-11-17T03:50:19.149Z,13.59
2022-11-17T03:51:20.951Z,13.45
2022-11-17T03:52:22.881Z,14.09
2022-11-17T03:53:24.762Z,13.94
2022-11-17T03:54:26.624Z,14.46
2022-11-17T03:55:28.444Z,13.51
2022-11-17T03:56:30.251Z,14.75
2022-11-17T03:57:32.111Z,15.86
2022-11-17T03:58:33.943Z,15.36
2022-11-17T03:59:35.830Z,15.80
2022-11-17T04:00:37.640Z,14.63
2022-11-17T04:01:39.458Z,14.58
2022-11-17T04:02:41.256Z,14.98
2022-11-17T04:03:43.063Z,14.45
2022-11-17T04:04:44.917Z,15.00
2022-11-17T04:05:46.741Z,15.84
2022-11-17T04:06:48.541Z,15.26
2022-11-17T04:07:50.354Z,15.37
2022-11-17T04:08:52.201Z,16.51
2022-11-17T04:09:54.060Z,15.60
2022-11-17T04:10:55.889Z,15.54
2022-11-17T04:11:57.681Z,15.86
2022-11-17T04:12:59.488Z,16.02
2022-11-17T04:14:01.309Z,15.69
2022-11-17T04:15:03.260Z,15.19
2022-11-17T04:16:05.278Z,17.07
2022-11-17T04:17:07.120Z,16.03
2022-11-17T04:18:08.941Z,16.35
2022-11-17T04:19:10.731Z,15.66
2022-11-17T04:20:12.696Z,15.56
2022-11-17T04:21:14.493Z,15.52
2022-11-17T04:22:16.292Z,16.71
2022-11-17T04:23:18.108Z,16.79
2022-11-17T04:24:19.969Z,15.34
2022-11-17T04:25:21.797Z,16.77
2022-11-17T04:26:23.710Z,18.13
2022-11-17T04:27:25.530Z,18.44
2022-11-17T04:28:27.632Z,19.11
2022-11-17T04:29:29.476Z,20.65
2022-11-17T04:30:31.338Z,22.05
2022-11-17T04:31:33.138Z,22.64
2022-11-17T04:32:34.942Z,21.71
2022-11-17T04:33:37.032Z,23.61
2022-11-17T04:34:39.104Z,24.18
2022-11-17T04:35:40.946Z,25.88
2022-11-17T04:36:42.751Z,24.95
2022-11-17T04:37:44.588Z,25.28
2022-11-17T04:38:46.400Z,25.06
2022-11-17T04:39:48.278Z,25.75
2022-11-17T04:40:50.143Z,27.37
2022-11-17T04:41:51.990Z,26.67
2022-11-17T04:42:53.781Z,26.21
2022-11-17T04:43:55.593Z,26.37
2022-11-17T04:44:57.401Z,27.49
2022-11-17T04:45:59.263Z,25.07
2022-11-17T04:47:01.118Z,26.36
2022-11-17T04:48:02.923Z,25.26
2022-11-17T04:49:04.731Z,26.20
2022-11-17T04:50:07.150Z,26.20
2022-11-17T04:51:09.013Z,26.14
2022-11-17T04:52:10.842Z,27.13
2022-11-17T04:53:12.656Z,25.86
2022-11-17T04:54:14.455Z,24.79
2022-11-17T04:55:16.459Z,26.13
2022-11-17T04:56:18.309Z,26.67
2022-11-17T04:57:20.141Z,27.22
2022-11-17T04:58:21.970Z,26.85
2022-11-17T04:59:23.783Z,27.57
2022-11-17T05:00:25.596Z,27.09
2022-11-17T05:01:27.444Z,28.44
2022-11-17T05:02:29.307Z,27.56
2022-11-17T05:03:31.065Z,28.81
2022-11-17T05:04:32.906Z,27.63
2022-11-17T05:05:34.730Z,28.99
2022-11-17T05:06:36.581Z,27.97
2022-11-17T05:07:38.505Z,27.90
2022-11-17T05:08:40.302Z,27.78
2022-11-17T05:09:42.129Z,26.97
2022-11-17T05:10:44.127Z,25.75
2022-11-17T05:11:45.999Z,27.01
2022-11-17T05:12:47.825Z,26.07
2022-11-17T05:13:49.640Z,26.25
2022-11-17T05:14:51.446Z,27.26
2022-11-17T05:15:53.251Z,25.52
2022-11-17T05:16:55.117Z,25.17
2022-11-17T05:17:56.921Z,25.23
2022-11-17T05:18:58.761Z,23.95
2022-11-17T05:20:00.596Z,26.47
2022-11-17T05:21:02.384Z,24.58
2022-11-17T05:22:04.248Z,24.31
2022-11-17T05:23:07.096Z,23.98
2022-11-17T05:24:08.991Z,24.06
2022-11-17T05:25:10.793Z,23.79
2022-11-17T05:26:12.982Z,24.61
2022-11-17T05:27:14.842Z,23.37
2022-11-17T05:28:17.237Z,24.41
2022-11-17T05:29:19.067Z,23.49
2022-11-17T05:30:20.862Z,23.98
2022-11-17T05:31:22.757Z,23.33
2022-11-17T05:32:24.643Z,23.86
2022-11-17T05:33:26.578Z,24.18
2022-11-17T05:34:28.375Z,23.14
2022-11-17T05:35:30.176Z,24.28
2022-11-17T05:36:31.999Z,23.36
2022-11-17T05:37:33.858Z,23.21
2022-11-17T05:38:35.651Z,23.76
2022-11-17T05:39:38.577Z,23.44
2022-11-17T05:40:40.397Z,22.71
2022-11-17T05:41:42.302Z,23.07
2022-11-17T05:42:44.192Z,22.89
2022-11-17T05:43:46.017Z,23.28
2022-11-17T05:44:47.853Z,22.94
2022-11-17T05:45:49.694Z,22.60
2022-11-17T05:46:51.510Z,21.44
2022-11-17T05:47:53.327Z,21.00
2022-11-17T05:48:55.118Z,21.83
2022-11-17T05:49:56.948Z,20.23
2022-11-17T05:50:58.756Z,21.21
2022-11-17T05:52:00.568Z,21.46
2022-11-17T05:53:02.424Z,21.82
2022-11-17T05:54:04.205Z,21.00
2022-11-17T05:55:06.038Z,20.49
2022-11-17T05:56:08.167Z,21.35
2022-11-17T05:57:10.055Z,20.56
2022-11-17T05:58:11.928Z,21.05
2022-11-17T05:59:13.761Z,21.05
2022-11-17T06:00:15.545Z,22.01
2022-11-17T06:01:17.395Z,21.65
2022-11-17T06:02:21.671Z,21.69
2022-11-17T06:03:23.607Z,21.12
2022-11-17T06:04:25.470Z,20.76
2022-11-17T06:05:27.290Z,21.43
2022-11-17T06:06:29.116Z,20.56
2022-11-17T06:07:30.978Z,20.41
2022-11-17T06:08:32.900Z,21.54
2022-11-17T06:09:34.734Z,20.07
2022-11-17T06:10:36.547Z,20.60
2022-11-17T06:11:38.352Z,21.06
2022-11-17T06:12:40.228Z,19.95
2022-11-17T06:13:42.080Z,19.47
2022-11-17T06:14:43.884Z,19.38
2022-11-17T06:15:45.726Z,19.43
2022-11-17T06:16:47.648Z,19.72
2022-11-17T06:17:49.488Z,19.70
2022-11-17T06:18:51.362Z,18.95
2022-11-17T06:19:53.156Z,17.90
2022-11-17T06:20:55.078Z,18.39
2022-11-17T06:22:11.660Z,18.83
2022-11-17T06:23:00.511Z,19.24
2022-11-17T06:24:02.391Z,18.47
2022-11-17T06:25:04.184Z,18.72
2022-11-17T06:26:06.287Z,18.55
2022-11-17T06:27:08.108Z,18.18
2022-11-17T06:28:09.960Z,19.38
2022-11-17T06:29:11.834Z,18.57
2022-11-17T06:30:13.972Z,18.73
2022-11-17T06:31:15.802Z,17.92
2022-11-17T06:32:17.583Z,16.85
2022-11-17T06:33:19.318Z,18.35
2022-11-17T06:34:21.160Z,19.75
2022-11-17T06:35:22.961Z,17.89
2022-11-17T06:36:24.789Z,18.23
2022-11-17T06:37:26.612Z,17.43
2022-11-17T06:38:28.446Z,18.47
2022-11-17T06:39:30.324Z,17.96
2022-11-17T06:40:32.239Z,18.61
2022-11-17T06:41:34.061Z,19.32
2022-11-17T06:42:35.882Z,18.34
2022-11-17T06:43:38.185Z,18.42
2022-11-17T06:44:40.098Z,18.29
2022-11-17T06:45:41.921Z,18.37
2022-11-17T06:46:48.797Z,17.69
2022-11-17T06:47:47.442Z,18.69
2022-11-17T06:48:49.242Z,18.12
2022-11-17T06:49:51.128Z,18.65
2022-11-17T06:50:52.922Z,18.95
2022-11-17T06:51:54.724Z,18.44
2022-11-17T06:52:56.557Z,17.71
2022-11-17T06:53:58.413Z,18.05
2022-11-17T06:55:00.290Z,18.71
2022-11-17T06:56:02.082Z,20.34
2022-11-17T06:57:03.896Z,18.08
2022-11-17T06:58:05.730Z,18.95
2022-11-17T06:59:07.664Z,17.15
2022-11-17T07:00:09.816Z,17.67
2022-11-17T07:01:11.658Z,17.77
2022-11-17T07:02:13.537Z,18.17
2022-11-17T07:03:15.344Z,18.30
2022-11-17T07:04:17.125Z,18.19
2022-11-17T07:05:19.022Z,19.39
2022-11-17T07:06:20.843Z,20.89
2022-11-17T07:07:22.703Z,19.84
2022-11-17T07:08:24.467Z,18.38
2022-11-17T07:09:26.273Z,17.97
2022-11-17T07:10:28.142Z,17.45
2022-11-17T07:11:29.961Z,16.54
2022-11-17T07:12:31.765Z,16.70
2022-11-17T07:13:33.573Z,16.59
2022-11-17T07:14:35.514Z,17.09
2022-11-17T07:15:37.350Z,15.87
2022-11-17T07:16:39.137Z,16.73
2022-11-17T07:17:40.959Z,16.76
2022-11-17T07:18:42.884Z,16.39
2022-11-17T07:19:44.716Z,17.60
2022-11-17T07:20:46.685Z,17.14
2022-11-17T07:21:48.472Z,17.03
2022-11-17T07:22:50.347Z,17.24
2022-11-17T07:23:52.118Z,16.08
2022-11-17T07:24:53.897Z,17.09
2022-11-17T07:25:55.767Z,16.09
2022-11-17T07:26:57.681Z,16.36
2022-11-17T07:27:59.547Z,16.32
2022-11-17T07:29:01.371Z,16.67
2022-11-17T07:30:03.239Z,16.34
2022-11-17T07:31:05.092Z,15.97
2022-11-17T07:32:06.918Z,16.03
2022-11-17T07:33:08.728Z,16.13
2022-11-17T07:34:10.522Z,15.31
2022-11-17T07:35:12.312Z,17.43
2022-11-17T07:36:14.162Z,16.81
2022-11-17T07:37:15.999Z,15.50
2022-11-17T07:38:17.818Z,15.34
2022-11-17T07:39:21.661Z,15.13
2022-11-17T07:40:23.291Z,15.53
2022-11-17T07:41:25.156Z,15.57
2022-11-17T07:42:26.967Z,14.87
2022-11-17T07:43:28.842Z,15.47
2022-11-17T07:44:30.721Z,15.15
2022-11-17T07:45:32.622Z,14.07
2022-11-17T07:46:34.490Z,13.56
2022-11-17T07:47:36.269Z,13.01
2022-11-17T07:48:38.460Z,13.61
2022-11-17T07:49:40.501Z,14.29
2022-11-17T07:50:42.438Z,12.97
2022-11-17T07:51:44.303Z,13.79
2022-11-17T07:52:46.118Z,13.35
2022-11-17T07:53:47.938Z,13.75
2022-11-17T07:54:49.748Z,14.09
2022-11-17T07:55:51.550Z,14.15
2022-11-17T07:56:53.479Z,14.01
2022-11-17T07:57:55.163Z,12.76
2022-11-17T07:58:56.975Z,13.05
2022-11-17T07:59:58.773Z,13.77
2022-11-17T08:01:00.723Z,13.14
2022-11-17T08:02:02.566Z,13.11
2022-11-17T08:03:04.363Z,13.80
2022-11-17T08:04:06.195Z,13.41
2022-11-17T08:05:07.973Z,14.26
2022-11-17T08:06:09.858Z,13.77
2022-11-17T08:07:11.749Z,13.37
2022-11-17T08:08:13.613Z,13.19
2022-11-17T08:09:15.491Z,12.30
2022-11-17T08:10:17.301Z,12.31
2022-11-17T08:11:19.078Z,13.30
2022-11-17T08:12:20.913Z,13.76
2022-11-17T08:13:22.720Z,13.10
2022-11-17T08:14:24.415Z,13.32
2022-11-17T08:15:26.213Z,12.39
2022-11-17T08:16:27.981Z,13.07
2022-11-17T08:17:29.764Z,12.70
2022-11-17T08:18:31.571Z,12.33
2022-11-17T08:19:33.370Z,11.88
2022-11-17T08:20:35.173Z,11.15
2022-11-17T08:21:36.944Z,11.97
2022-11-17T08:22:38.754Z,11.59
2022-11-17T08:23:40.441Z,13.17
2022-11-17T08:24:42.376Z,11.64
2022-11-17T08:25:44.252Z,10.89
2022-11-17T08:26:46.030Z,10.77
2022-11-17T08:27:47.877Z,11.25
2022-11-17T08:28:53.655Z,11.45
2022-11-17T08:29:53.304Z,11.04
2022-11-17T08:30:55.189Z,10.74
2022-11-17T08:31:57.106Z,10.95
2022-11-17T08:32:58.897Z,10.24
2022-11-17T08:34:00.685Z,10.95
2022-11-17T08:35:02.395Z,11.04
2022-11-17T08:36:04.289Z,10.79
2022-11-17T08:37:06.054Z,10.53
2022-11-17T08:38:07.790Z,11.20
2022-11-17T08:39:09.502Z,11.81
2022-11-17T08:40:11.389Z,11.38
2022-11-17T08:41:13.170Z,11.78
2022-11-17T08:42:14.969Z,11.20
2022-11-17T08:43:16.793Z,10.91
2022-11-17T08:44:18.479Z,11.53
2022-11-17T08:45:20.265Z,10.91
2022-11-17T08:46:22.063Z,10.86
2022-11-17T08:47:23.757Z,11.08
2022-11-17T08:48:25.908Z,10.56
2022-11-17T08:49:27.701Z,10.50
2022-11-17T08:50:29.494Z,10.74
2022-11-17T08:51:31.279Z,10.42
2022-11-17T08:52:32.962Z,10.73
2022-11-17T08:53:34.674Z,10.70
2022-11-17T08:54:36.461Z,10.57
2022-11-17T08:55:41.156Z,10.49
2022-11-17T08:56:42.025Z,11.20
2022-11-17T08:57:43.772Z,11.04
2022-11-17T08:58:45.651Z,11.73
2022-11-17T08:59:47.336Z,11.03
2022-11-17T09:00:49.054Z,10.79
2022-11-17T09:01:50.816Z,11.20
2022-11-17T09:02:52.541Z,10.19
2022-11-17T09:03:54.355Z,11.18
2022-11-17T09:04:56.035Z,11.04
2022-11-17T09:05:57.823Z,11.11
2022-11-17T09:06:59.558Z,10.81
2022-11-17T09:08:22.326Z,10.88
2022-11-17T09:09:05.415Z,11.00
2022-11-17T09:10:07.515Z,11.43
2022-11-17T09:11:09.205Z,12.17
2022-11-17T09:12:11.028Z,10.83
2022-11-17T09:13:17.515Z,11.29
2022-11-17T09:14:16.448Z,11.17
2022-11-17T09:15:18.333Z,11.98
2022-11-17T09:16:20.129Z,11.42
2022-11-17T09:17:21.952Z,12.43
2022-11-17T09:18:23.880Z,12.76
2022-11-17T09:19:25.596Z,12.22
2022-11-17T09:20:27.281Z,12.27
2022-11-17T09:21:28.987Z,13.52
2022-11-17T09:22:30.763Z,14.23
2022-11-17T09:23:32.584Z,14.02
2022-11-17T09:24:34.584Z,13.65
2022-11-17T09:25:36.370Z,13.13
2022-11-17T09:26:38.151Z,12.58
2022-11-17T09:27:40.050Z,11.87
2022-11-17T09:28:41.734Z,12.83
2022-11-17T09:29:43.550Z,12.34
2022-11-17T09:30:45.342Z,13.17
2022-11-17T09:31:47.138Z,11.45
2022-11-17T09:32:48.949Z,11.93
2022-11-17T09:33:50.863Z,15.51
2022-11-17T09:34:52.962Z,16.85
2022-11-17T09:35:54.737Z,18.48
2022-11-17T09:36:56.532Z,21.75
2022-11-17T09:37:58.314Z,19.47
2022-11-17T09:38:59.988Z,18.13
2022-11-17T09:40:01.805Z,15.24
2022-11-17T09:41:03.605Z,13.22
2022-11-17T09:42:05.297Z,12.73
2022-11-17T09:43:06.992Z,13.23
2022-11-17T09:44:08.675Z,12.94
2022-11-17T09:45:10.483Z,12.71
2022-11-17T09:46:12.274Z,13.04
2022-11-17T09:47:14.069Z,13.67
2022-11-17T09:49:19.526Z,13.43
2022-11-17T09:50:21.259Z,11.46
2022-11-17T09:51:22.947Z,12.69
2022-11-17T09:52:24.749Z,13.07
2022-11-17T09:53:26.647Z,13.88
2022-11-17T09:54:28.338Z,12.15
2022-11-17T09:55:34.177Z,11.61
2022-11-17T09:56:33.868Z,12.96
2022-11-17T09:57:35.655Z,13.43
2022-11-17T09:58:37.823Z,14.46
2022-11-17T09:59:40.033Z,13.62
2022-11-17T10:00:41.956Z,13.51
2022-11-17T10:01:43.665Z,13.56
2022-11-17T10:02:45.426Z,14.71
2022-11-17T10:03:47.514Z,13.08
2022-11-17T10:04:49.610Z,13.42
2022-11-17T10:05:51.416Z,13.63
2022-11-17T10:06:53.364Z,13.89
2022-11-17T10:07:55.235Z,13.47
2022-11-17T10:08:57.032Z,14.41
2022-11-17T10:09:58.845Z,14.33
2022-11-17T10:11:00.700Z,14.08
2022-11-17T10:12:02.506Z,14.08
2022-11-17T10:13:04.324Z,15.25
2022-11-17T10:14:06.089Z,14.06
2022-11-17T10:15:07.860Z,14.09
2022-11-17T10:16:09.802Z,13.49
2022-11-17T10:17:11.580Z,12.15
2022-11-17T10:18:13.420Z,11.99
2022-11-17T10:19:15.217Z,13.65
2022-11-17T10:20:17.179Z,17.53
2022-11-17T10:21:19.060Z,17.80
2022-11-17T10:22:21.127Z,16.32
2022-11-17T10:23:22.970Z,16.35
2022-11-17T10:24:24.715Z,14.85
2022-11-17T10:25:26.595Z,16.17
2022-11-17T10:26:28.408Z,15.96
2022-11-17T10:27:30.226Z,15.83
2022-11-17T10:28:32.019Z,16.28
2022-11-17T10:29:33.870Z,16.10
2022-11-17T10:30:35.799Z,16.07
2022-11-17T10:31:37.657Z,16.16
2022-11-17T10:32:43.970Z,14.80
2022-11-17T10:33:43.086Z,14.79
2022-11-17T10:34:44.914Z,14.93
2022-11-17T10:35:46.748Z,15.85
2022-11-17T10:36:48.558Z,15.29
2022-11-17T10:37:50.344Z,14.89
2022-11-17T10:38:52.132Z,14.43
2022-11-17T10:39:53.961Z,14.29
2022-11-17T10:40:55.998Z,13.75
2022-11-17T10:41:57.871Z,14.41
2022-11-17T10:42:59.664Z,14.51
2022-11-17T10:44:01.474Z,15.31
2022-11-17T10:45:03.238Z,14.50
2022-11-17T10:46:05.157Z,14.45
2022-11-17T10:47:07.253Z,13.95
2022-11-17T10:48:09.111Z,14.89
2022-11-17T10:49:11.979Z,14.03
2022-11-17T10:50:13.905Z,14.35
2022-11-17T10:51:15.829Z,15.66
2022-11-17T10:52:17.581Z,13.82
2022-11-17T10:53:19.390Z,14.88
2022-11-17T10:54:21.215Z,15.11
2022-11-17T10:55:23.040Z,14.19
2022-11-17T10:56:24.845Z,14.95
2022-11-17T10:57:26.736Z,15.03
2022-11-17T10:58:28.462Z,13.63
2022-11-17T10:59:30.259Z,14.17
2022-11-17T11:00:32.090Z,14.62
2022-11-17T11:01:34.052Z,14.73
2022-11-17T11:02:35.859Z,14.62
2022-11-17T11:03:38.016Z,15.01
2022-11-17T11:04:40.010Z,15.79
2022-11-17T11:05:41.811Z,15.67
2022-11-17T11:06:43.669Z,18.61
2022-11-17T11:07:45.515Z,19.91
2022-11-17T11:08:47.308Z,19.20
2022-11-17T11:09:49.116Z,18.39
2022-11-17T11:10:50.907Z,17.05
2022-11-17T11:11:52.726Z,15.27
2022-11-17T11:12:54.562Z,16.55
2022-11-17T11:13:56.280Z,17.94
2022-11-17T11:14:58.087Z,21.51
2022-11-17T11:15:59.868Z,24.96
2022-11-17T11:17:01.711Z,23.39
2022-11-17T11:18:03.538Z,22.77
2022-11-17T11:19:05.351Z,20.48
2022-11-17T11:20:07.233Z,20.21
2022-11-17T11:21:09.044Z,18.43
2022-11-17T11:22:10.927Z,18.47
2022-11-17T11:23:12.802Z,18.41
2022-11-17T11:24:14.614Z,18.18
2022-11-17T11:25:16.430Z,17.81
2022-11-17T11:26:18.229Z,16.37
2022-11-17T11:27:19.934Z,17.86
2022-11-17T11:28:21.657Z,18.55
2022-11-17T11:29:23.467Z,16.88
2022-11-17T11:30:25.281Z,17.78
2022-11-17T11:31:27.090Z,18.25
2022-11-17T11:32:28.908Z,19.65
2022-11-17T11:33:30.744Z,19.85
2022-11-17T11:34:32.535Z,19.46
2022-11-17T11:35:34.329Z,18.75
2022-11-17T11:36:36.252Z,17.52
2022-11-17T11:37:38.094Z,19.95
2022-11-17T11:38:39.918Z,20.16
2022-11-17T11:39:41.618Z,22.36
2022-11-17T11:40:43.422Z,19.47
2022-11-17T11:41:45.276Z,19.60
2022-11-17T11:42:47.092Z,19.03
2022-11-17T11:43:49.103Z,19.94
2022-11-17T11:44:50.926Z,18.11
2022-11-17T11:45:52.731Z,16.99
2022-11-17T11:46:54.671Z,14.97
2022-11-17T11:47:56.460Z,15.41
2022-11-17T11:48:58.307Z,16.27
2022-11-17T11:50:00.118Z,15.40
2022-11-17T11:51:01.956Z,16.79
2022-11-17T11:52:03.750Z,15.83
2022-11-17T11:53:05.666Z,17.33
2022-11-17T11:54:07.524Z,17.21
2022-11-17T11:55:09.324Z,16.09
2022-11-17T11:56:11.136Z,16.74
2022-11-17T11:57:12.938Z,17.15
2022-11-17T11:58:14.735Z,21.87
2022-11-17T11:59:16.586Z,33.22
2022-11-17T12:00:18.400Z,37.72
2022-11-17T12:01:20.212Z,34.73
2022-11-17T12:02:22.104Z,39.82
2022-11-17T12:03:24.045Z,47.09
2022-11-17T12:04:25.961Z,49.31
2022-11-17T12:05:27.776Z,47.46
2022-11-17T12:06:29.588Z,43.45
2022-11-17T12:07:31.437Z,36.72
2022-11-17T12:08:33.392Z,31.84
2022-11-17T12:09:35.393Z,30.55
2022-11-17T12:10:37.184Z,27.47
2022-11-17T12:11:38.975Z,28.33
2022-11-17T12:12:40.827Z,25.84
2022-11-17T12:13:47.377Z,22.33
2022-11-17T12:14:46.336Z,20.77
2022-11-17T12:15:48.159Z,17.46
2022-11-17T12:16:49.983Z,18.25
2022-11-17T12:17:51.841Z,18.90
2022-11-17T12:18:53.642Z,20.11
2022-11-17T12:19:55.448Z,19.53
2022-11-17T12:20:57.348Z,19.63
2022-11-17T12:21:59.130Z,18.51
2022-11-17T12:23:00.914Z,18.57
2022-11-17T12:24:02.724Z,17.17
2022-11-17T12:25:04.456Z,17.65
2022-11-17T12:26:06.549Z,17.93
2022-11-17T12:27:08.775Z,18.59
2022-11-17T12:28:10.502Z,26.15
2022-11-17T12:29:12.260Z,35.54
2022-11-17T12:30:14.303Z,44.21
2022-11-17T12:31:16.089Z,40.29
2022-11-17T12:32:17.893Z,31.20
2022-11-17T12:33:19.677Z,25.46
2022-11-17T12:34:21.341Z,19.69
2022-11-17T12:35:23.067Z,17.16
2022-11-17T12:36:30.149Z,16.45
2022-11-17T12:37:28.530Z,16.82
2022-11-17T12:38:30.324Z,18.44
2022-11-17T12:39:32.191Z,19.47
2022-11-17T12:40:34.006Z,21.69
2022-11-17T12:41:35.692Z,21.45
2022-11-17T12:42:37.369Z,22.17
2022-11-17T12:43:39.052Z,21.28
2022-11-17T12:44:40.828Z,20.27
2022-11-17T12:45:42.559Z,21.29
2022-11-17T12:46:44.262Z,19.94
2022-11-17T12:47:54.764Z,20.04
2022-11-17T12:48:49.683Z,19.89
2022-11-17T12:49:51.433Z,21.63
2022-11-17T12:50:53.347Z,24.27
2022-11-17T12:51:55.130Z,25.01
2022-11-17T12:52:56.819Z,23.61
2022-11-17T12:53:58.994Z,27.49
2022-11-17T12:55:00.792Z,27.03
2022-11-17T12:56:03.670Z,30.67
2022-11-17T12:57:05.757Z,31.32
2022-11-17T12:58:10.496Z,31.76
2022-11-17T12:59:11.099Z,31.88
2022-11-17T13:00:12.980Z,40.36
2022-11-17T13:01:14.835Z,39.17
2022-11-17T13:02:16.596Z,41.93
2022-11-17T13:03:18.383Z,39.26
2022-11-17T13:04:21.094Z,37.62
2022-11-17T13:05:22.898Z,35.37
2022-11-17T13:06:40.012Z,32.63
2022-11-17T13:07:29.515Z,32.23
2022-11-17T13:08:31.341Z,34.98
2022-11-17T13:09:33.084Z,31.93
2022-11-17T13:10:35.018Z,28.91
2022-11-17T13:11:38.545Z,26.59
2022-11-17T13:12:40.338Z,23.61
2022-11-17T13:13:45.787Z,19.25
2022-11-17T13:14:45.632Z,22.20
2022-11-17T13:15:47.314Z,23.08
2022-11-17T13:16:50.847Z,21.22
2022-11-17T13:17:53.128Z,21.54
2022-11-17T13:18:54.809Z,20.42
2022-11-17T13:19:56.596Z,19.80
2022-11-17T13:20:58.384Z,20.23
2022-11-17T13:22:00.191Z,21.71
2022-11-17T13:23:01.983Z,23.19